createdAt,value
2019-03-10T00:01:53.178Z,100441.09
2019-03-10T00:04:22.684Z,100441.28
2019-03-10T00:06:51.613Z,100437.08
2019-03-10T00:09:50.352Z,100425.31
2019-03-10T00:12:36.556Z,100430.66
2019-03-10T00:15:15.544Z,100426.39
2019-03-10T00:17:58.073Z,100427.16
2019-03-10T00:20:33.265Z,100429.33
2019-03-10T00:23:04.606Z,100423.85
2019-03-10T00:25:33.868Z,100420.21
2019-03-10T00:28:24.779Z,100418.64
2019-03-10T00:30:53.624Z,100413.09
2019-03-10T00:33:43.603Z,100416.47
2019-03-10T00:36:16.448Z,100425.69
2019-03-10T00:39:22.269Z,100424.08
2019-03-10T00:42:35.155Z,100418.73
2019-03-10T00:45:50.143Z,100421.11
2019-03-10T00:48:35.059Z,100407.17
2019-03-10T00:51:34.323Z,100406.45
2019-03-10T00:54:03.181Z,100404.98
2019-03-10T00:56:31.823Z,100404.58
2019-03-10T00:59:00.454Z,100393.08
2019-03-10T01:01:29.101Z,100396.56
2019-03-10T01:03:57.738Z,100387.91
2019-03-10T01:06:26.448Z,100384.73
2019-03-10T01:08:55.144Z,100374.44
2019-03-10T01:11:23.967Z,100372.27
2019-03-10T01:13:52.659Z,100378.47
2019-03-10T01:16:21.364Z,100371.08
2019-03-10T01:18:50.125Z,100366.50
2019-03-10T01:21:18.926Z,100370.75
2019-03-10T01:23:47.624Z,100373.63
2019-03-10T01:26:16.260Z,100363.94
2019-03-10T01:28:44.910Z,100384.39
2019-03-10T01:31:22.578Z,100370.45
2019-03-10T01:34:20.543Z,100374.56
2019-03-10T01:36:49.257Z,100365.42
2019-03-10T01:39:17.886Z,100363.71
2019-03-10T01:41:46.519Z,100369.96
2019-03-10T01:44:15.226Z,100350.34
2019-03-10T01:46:43.900Z,100341.06
2019-03-10T01:49:12.506Z,100331.44
2019-03-10T01:51:41.149Z,100326.14
2019-03-10T01:54:09.809Z,100312.22
2019-03-10T01:56:38.463Z,100307.38
2019-03-10T01:59:07.086Z,100301.87
2019-03-10T02:01:35.711Z,100296.97
2019-03-10T02:04:04.347Z,100283.11
2019-03-10T02:06:32.977Z,100266.27
2019-03-10T02:09:01.647Z,100264.19
2019-03-10T02:11:30.317Z,100248.15
2019-03-10T02:13:58.937Z,100235.12
2019-03-10T02:16:27.589Z,100223.18
2019-03-10T02:18:56.222Z,100216.92
2019-03-10T02:21:24.897Z,100213.28
2019-03-10T02:23:53.674Z,100205.30
2019-03-10T02:26:22.304Z,100200.66
2019-03-10T02:28:50.912Z,100192.39
2019-03-10T02:31:19.622Z,100181.50
2019-03-10T02:33:48.251Z,100180.84
2019-03-10T02:36:16.891Z,100174.95
2019-03-10T02:38:45.528Z,100165.80
2019-03-10T02:41:14.161Z,100168.77
2019-03-10T02:43:42.804Z,100156.91
2019-03-10T02:46:11.512Z,100145.51
2019-03-10T02:48:40.169Z,100129.01
2019-03-10T02:51:08.878Z,100105.45
2019-03-10T02:53:37.502Z,100091.83
2019-03-10T02:56:06.260Z,100087.28
2019-03-10T02:58:34.918Z,100084.22
2019-03-10T03:01:03.536Z,100088.73
2019-03-10T03:03:32.176Z,100094.41
2019-03-10T03:06:00.825Z,100094.82
2019-03-10T03:08:29.536Z,100093.58
2019-03-10T03:10:58.244Z,100093.67
2019-03-10T03:13:26.887Z,100104.15
2019-03-10T03:15:55.525Z,100093.07
2019-03-10T03:18:24.156Z,100087.42
2019-03-10T03:20:52.776Z,100081.22
2019-03-10T03:23:21.499Z,100081.73
2019-03-10T03:25:50.106Z,100069.02
2019-03-10T03:28:19.056Z,100055.33
2019-03-10T03:30:47.757Z,100048.76
2019-03-10T03:33:16.379Z,100038.08
2019-03-10T03:35:53.390Z,100048.76
2019-03-10T03:38:28.167Z,100058.71
2019-03-10T03:40:59.927Z,100064.56
2019-03-10T03:43:28.635Z,100053.23
2019-03-10T03:45:57.413Z,100042.45
2019-03-10T03:48:26.038Z,100032.67
2019-03-10T03:50:54.685Z,100035.05
2019-03-10T03:53:23.307Z,100021.69
2019-03-10T03:55:51.954Z,100012.73
2019-03-10T03:58:20.646Z,99996.30
2019-03-10T04:00:52.849Z,99986.73
2019-03-10T04:03:21.530Z,99969.98
2019-03-10T04:05:50.155Z,99957.66
2019-03-10T04:08:18.770Z,99950.36
2019-03-10T04:10:47.418Z,99940.37
2019-03-10T04:13:16.113Z,99927.21
2019-03-10T04:15:44.754Z,99908.50
2019-03-10T04:18:13.379Z,99902.87
2019-03-10T04:20:42.005Z,99902.74
2019-03-10T04:23:10.618Z,99896.78
2019-03-10T04:25:39.257Z,99888.67
2019-03-10T04:28:08.019Z,99880.84
2019-03-10T04:30:36.655Z,99879.83
2019-03-10T04:33:05.347Z,99876.64
2019-03-10T04:35:34.041Z,99864.20
2019-03-10T04:38:02.660Z,99863.19
2019-03-10T04:40:31.280Z,99857.13
2019-03-10T04:42:59.905Z,99844.59
2019-03-10T04:45:28.597Z,99837.80
2019-03-10T04:47:57.200Z,99838.73
2019-03-10T04:50:25.821Z,99826.35
2019-03-10T04:52:54.455Z,99816.08
2019-03-10T04:55:34.949Z,99812.48
2019-03-10T04:58:05.935Z,99812.19
2019-03-10T05:00:36.009Z,99801.15
2019-03-10T05:03:04.738Z,99789.53
2019-03-10T05:05:33.431Z,99789.48
2019-03-10T05:08:02.065Z,99785.78
2019-03-10T05:10:30.676Z,99782.89
2019-03-10T05:12:59.322Z,99776.73
2019-03-10T05:15:28.105Z,99773.57
2019-03-10T05:17:56.743Z,99769.97
2019-03-10T05:20:25.377Z,99767.09
2019-03-10T05:23:26.690Z,99761.13
2019-03-10T05:25:55.406Z,99752.32
2019-03-10T05:28:24.116Z,99746.66
2019-03-10T05:30:52.725Z,99746.54
2019-03-10T05:33:21.342Z,99739.37
2019-03-10T05:35:50.048Z,99725.91
2019-03-10T05:38:18.688Z,99719.34
2019-03-10T05:40:47.295Z,99714.61
2019-03-10T05:43:16.053Z,99708.77
2019-03-10T05:45:44.682Z,99697.88
2019-03-10T05:48:13.316Z,99690.80
2019-03-10T05:50:41.924Z,99682.36
2019-03-10T05:53:10.676Z,99675.79
2019-03-10T05:55:39.288Z,99664.09
2019-03-10T05:58:07.922Z,99635.41
2019-03-10T06:00:42.558Z,99637.41
2019-03-10T06:03:07.081Z,99632.39
2019-03-10T06:05:35.731Z,99619.54
2019-03-10T06:08:04.451Z,99621.92
2019-03-10T06:10:33.101Z,99616.81
2019-03-10T06:13:01.805Z,99608.98
2019-03-10T06:15:30.500Z,99601.59
2019-03-10T06:17:59.141Z,99591.23
2019-03-10T06:20:27.786Z,99581.45
2019-03-10T06:22:56.436Z,99573.34
2019-03-10T06:25:25.163Z,99568.34
2019-03-10T06:27:53.871Z,99559.70
2019-03-10T06:30:22.541Z,99564.66
2019-03-10T06:32:51.243Z,99549.33
2019-03-10T06:35:19.938Z,99554.98
2019-03-10T06:37:48.630Z,99550.98
2019-03-10T06:40:17.323Z,99543.42
2019-03-10T06:42:45.953Z,99530.86
2019-03-10T06:45:14.589Z,99524.91
2019-03-10T06:47:43.199Z,99516.30
2019-03-10T06:50:12.498Z,99503.69
2019-03-10T06:52:41.345Z,99502.80
2019-03-10T06:55:10.164Z,99488.40
2019-03-10T06:57:38.783Z,99485.67
2019-03-10T07:00:09.155Z,99478.23
2019-03-10T07:02:37.806Z,99474.55
2019-03-10T07:05:08.164Z,99462.42
2019-03-10T07:07:36.876Z,99459.25
2019-03-10T07:10:06.538Z,99453.20
2019-03-10T07:12:35.206Z,99453.22
2019-03-10T07:15:04.081Z,99449.92
2019-03-10T07:17:32.796Z,99439.00
2019-03-10T07:20:01.428Z,99442.17
2019-03-10T07:22:30.070Z,99433.66
2019-03-10T07:24:58.700Z,99428.22
2019-03-10T07:27:34.375Z,99421.18
2019-03-10T07:30:11.114Z,99423.32
2019-03-10T07:33:00.872Z,99415.94
2019-03-10T07:35:46.759Z,99418.17
2019-03-10T07:38:21.595Z,99416.81
2019-03-10T07:40:58.178Z,99419.65
2019-03-10T07:43:50.989Z,99421.08
2019-03-10T07:46:38.642Z,99422.97
2019-03-10T07:49:18.059Z,99416.91
2019-03-10T07:52:05.215Z,99409.98
2019-03-10T07:54:41.332Z,99400.83
2019-03-10T07:57:27.787Z,99401.28
2019-03-10T08:00:05.425Z,99397.28
2019-03-10T08:02:39.841Z,99391.80
2019-03-10T08:05:23.793Z,99385.62
2019-03-10T08:08:00.999Z,99371.31
2019-03-10T08:10:59.950Z,99364.02
2019-03-10T08:13:51.733Z,99364.83
2019-03-10T08:16:50.311Z,99360.41
2019-03-10T08:19:40.334Z,99351.54
2019-03-10T08:23:02.050Z,99347.53
2019-03-10T08:25:49.838Z,99337.73
2019-03-10T08:28:43.783Z,99336.58
2019-03-10T08:31:47.476Z,99335.84
2019-03-10T08:34:39.651Z,99325.67
2019-03-10T08:37:26.781Z,99330.23
2019-03-10T08:40:10.284Z,99328.84
2019-03-10T08:43:03.928Z,99325.11
2019-03-10T08:45:51.841Z,99315.66
2019-03-10T08:48:39.791Z,99317.30
2019-03-10T08:51:26.121Z,99300.28
2019-03-10T08:54:11.928Z,99305.95
2019-03-10T08:57:03.540Z,99298.23
2019-03-10T08:59:45.485Z,99299.92
2019-03-10T09:02:36.363Z,99299.62
2019-03-10T09:05:28.069Z,99294.98
2019-03-10T09:08:11.958Z,99296.47
2019-03-10T09:10:48.302Z,99292.80
2019-03-10T09:13:38.306Z,99292.84
2019-03-10T09:16:17.018Z,99281.62
2019-03-10T09:19:03.365Z,99284.73
2019-03-10T09:21:57.045Z,99279.66
2019-03-10T09:24:33.612Z,99274.54
2019-03-10T09:27:24.091Z,99270.94
2019-03-10T09:30:04.545Z,99269.30
2019-03-10T09:33:04.680Z,99264.58
2019-03-10T09:35:52.411Z,99262.64
2019-03-10T09:38:28.763Z,99241.31
2019-03-10T09:41:04.420Z,99244.34
2019-03-10T09:43:50.845Z,99242.32
2019-03-10T09:46:38.492Z,99224.91
2019-03-10T09:49:18.399Z,99215.02
2019-03-10T09:52:05.034Z,99215.66
2019-03-10T09:54:52.739Z,99214.43
2019-03-10T09:57:35.438Z,99211.23
2019-03-10T10:00:30.179Z,99193.81
2019-03-10T10:03:17.905Z,99191.98
2019-03-10T10:06:17.698Z,99184.28
2019-03-10T10:08:52.709Z,99168.92
2019-03-10T10:11:38.989Z,99170.37
2019-03-10T10:14:13.165Z,99167.89
2019-03-10T10:17:00.980Z,99166.33
2019-03-10T10:19:47.187Z,99167.97
2019-03-10T10:22:29.555Z,99174.39
2019-03-10T10:25:16.098Z,99156.41
2019-03-10T10:28:15.626Z,99153.27
2019-03-10T10:31:15.337Z,99166.08
2019-03-10T10:34:01.499Z,99175.00
2019-03-10T10:36:46.683Z,99156.74
2019-03-10T10:39:32.906Z,99153.75
2019-03-10T10:42:23.352Z,99157.48
2019-03-10T10:45:10.980Z,99165.73
2019-03-10T10:47:57.259Z,99164.12
2019-03-10T10:50:37.627Z,99169.85
2019-03-10T10:53:23.854Z,99162.12
2019-03-10T10:56:17.541Z,99184.19
2019-03-10T10:58:56.530Z,99182.06
2019-03-10T11:01:49.983Z,99174.84
2019-03-10T11:04:43.545Z,99173.19
2019-03-10T11:07:21.548Z,99163.63
2019-03-10T11:10:09.273Z,99161.51
2019-03-10T11:12:52.549Z,99166.53
2019-03-10T11:15:46.003Z,99150.77
2019-03-10T11:18:32.168Z,99152.67
2019-03-10T11:21:13.359Z,99154.45
2019-03-10T11:23:49.128Z,99163.77
2019-03-10T11:26:45.591Z,99151.41
2019-03-10T11:29:32.795Z,99148.11
2019-03-10T11:32:19.407Z,99159.73
2019-03-10T11:35:09.889Z,99161.15
2019-03-10T11:37:45.424Z,99157.18
2019-03-10T11:40:31.654Z,99154.03
2019-03-10T11:43:05.249Z,99146.69
2019-03-10T11:46:07.978Z,99137.75
2019-03-10T11:48:54.150Z,99123.38
2019-03-10T11:51:47.628Z,99122.97
2019-03-10T11:54:38.400Z,99112.28
2019-03-10T11:57:31.887Z,99122.50
2019-03-10T12:00:18.130Z,99119.91
2019-03-10T12:03:06.067Z,99123.39
2019-03-10T12:05:50.438Z,99115.14
2019-03-10T12:08:43.892Z,99126.64
2019-03-10T12:11:12.701Z,99146.94
2019-03-10T12:13:41.324Z,99165.51
2019-03-10T12:16:09.966Z,99146.00
2019-03-10T12:18:38.647Z,99134.33
2019-03-10T12:21:07.412Z,99118.80
2019-03-10T12:23:36.127Z,99123.70
2019-03-10T12:26:04.810Z,99139.04
2019-03-10T12:28:33.444Z,99170.34
2019-03-10T12:31:02.055Z,99188.19
2019-03-10T12:33:30.767Z,99145.63
2019-03-10T12:35:59.465Z,99157.47
2019-03-10T12:38:28.202Z,99139.95
2019-03-10T12:40:56.870Z,99136.83
2019-03-10T12:43:25.474Z,99138.81
2019-03-10T12:45:54.122Z,99121.31
2019-03-10T12:48:25.740Z,99103.86
2019-03-10T12:50:54.365Z,99118.20
2019-03-10T12:53:23.062Z,99083.56
2019-03-10T12:55:51.624Z,99110.47
2019-03-10T12:58:20.233Z,99103.18
2019-03-10T13:00:48.924Z,99105.88
2019-03-10T13:03:17.614Z,99130.76
2019-03-10T13:05:46.274Z,99134.16
2019-03-10T13:08:15.030Z,99122.73
2019-03-10T13:10:43.641Z,99117.78
2019-03-10T13:13:12.255Z,99123.85
2019-03-10T13:15:40.911Z,99126.34
2019-03-10T13:18:09.523Z,99128.65
2019-03-10T13:20:38.175Z,99129.53
2019-03-10T13:23:06.778Z,99122.27
2019-03-10T13:25:35.528Z,99126.20
2019-03-10T13:28:04.103Z,99129.05
2019-03-10T13:30:32.789Z,99140.11
2019-03-10T13:33:01.386Z,99114.20
2019-03-10T13:35:30.154Z,99138.21
2019-03-10T13:37:58.768Z,99135.39
2019-03-10T13:40:27.396Z,99141.28
2019-03-10T13:42:56.046Z,99169.69
2019-03-10T13:45:24.794Z,99167.72
2019-03-10T13:47:53.471Z,99158.88
2019-03-10T13:50:22.152Z,99180.59
2019-03-10T13:52:50.797Z,99208.61
2019-03-10T13:55:19.464Z,99211.66
2019-03-10T13:57:48.189Z,99244.33
2019-03-10T14:00:20.342Z,99237.47
2019-03-10T14:02:49.095Z,99258.42
2019-03-10T14:05:17.746Z,99254.95
2019-03-10T14:07:46.478Z,99250.97
2019-03-10T14:10:15.254Z,99250.67
2019-03-10T14:12:43.926Z,99265.28
2019-03-10T14:15:12.637Z,99283.13
2019-03-10T14:17:41.352Z,99289.36
2019-03-10T14:20:10.003Z,99298.27
2019-03-10T14:22:38.633Z,99314.86
2019-03-10T14:25:07.384Z,99295.39
2019-03-10T14:27:36.255Z,99304.11
2019-03-10T14:30:05.540Z,99335.83
2019-03-10T14:32:34.526Z,99317.33
2019-03-10T14:35:03.239Z,99337.59
2019-03-10T14:37:36.211Z,99331.72
2019-03-10T14:40:05.626Z,99331.81
2019-03-10T14:42:34.475Z,99326.34
2019-03-10T14:45:03.484Z,99350.98
2019-03-10T14:47:32.112Z,99343.94
2019-03-10T14:50:00.823Z,99354.61
2019-03-10T14:52:58.396Z,99362.66
2019-03-10T14:55:27.976Z,99362.77
2019-03-10T14:58:00.551Z,99407.67
2019-03-10T15:00:49.909Z,99396.49
2019-03-10T15:03:20.473Z,99384.59
2019-03-10T15:05:49.936Z,99400.45
2019-03-10T15:08:20.749Z,99415.19
2019-03-10T15:11:12.019Z,99410.38
2019-03-10T15:13:42.336Z,99420.86
2019-03-10T15:16:11.142Z,99413.56
2019-03-10T15:18:40.972Z,99459.54
2019-03-10T15:21:14.853Z,99430.84
2019-03-10T15:23:44.721Z,99455.48
2019-03-10T15:26:14.345Z,99456.73
2019-03-10T15:28:45.239Z,99463.92
2019-03-10T15:31:14.024Z,99449.66
2019-03-10T15:33:47.225Z,99487.24
2019-03-10T15:36:20.985Z,99477.72
2019-03-10T15:38:50.076Z,99480.72
2019-03-10T15:41:21.809Z,99517.73
2019-03-10T15:43:53.945Z,99494.04
2019-03-10T15:46:23.807Z,99509.39
2019-03-10T15:48:59.072Z,99514.91
2019-03-10T15:51:39.339Z,99515.20
2019-03-10T15:54:26.875Z,99517.30
2019-03-10T15:56:56.642Z,99532.17
2019-03-10T15:59:26.360Z,99556.20
2019-03-10T16:01:57.098Z,99543.70
2019-03-10T16:04:32.510Z,99561.26
2019-03-10T16:07:07.354Z,99590.27
2019-03-10T16:09:39.302Z,99569.64
2019-03-10T16:12:08.265Z,99590.67
2019-03-10T16:14:43.640Z,99594.52
2019-03-10T16:17:14.085Z,99620.81
2019-03-10T16:19:43.605Z,99594.97
2019-03-10T16:22:12.747Z,99604.61
2019-03-10T16:24:44.937Z,99607.97
2019-03-10T16:27:15.103Z,99635.23
2019-03-10T16:29:47.135Z,99620.48
2019-03-10T16:32:20.892Z,99641.22
2019-03-10T16:37:43.873Z,99646.81
2019-03-10T16:40:13.600Z,99647.25
2019-03-10T16:42:42.348Z,99647.41
2019-03-10T16:45:16.545Z,99654.57
2019-03-10T16:47:45.294Z,99671.91
2019-03-10T16:50:15.040Z,99679.73
2019-03-10T16:52:43.692Z,99681.91
2019-03-10T16:55:12.451Z,99682.36
2019-03-10T17:00:23.749Z,99707.28
2019-03-10T17:02:52.552Z,99693.96
2019-03-10T17:05:21.240Z,99700.12
2019-03-10T17:07:50.476Z,99699.31
2019-03-10T17:10:22.509Z,99709.35
2019-03-10T17:12:51.310Z,99717.25
2019-03-10T17:15:20.110Z,99731.91
2019-03-10T17:17:48.835Z,99728.91
2019-03-10T17:20:17.789Z,99735.89
2019-03-10T17:22:46.651Z,99727.66
2019-03-10T17:25:15.394Z,99775.80
2019-03-10T17:27:44.203Z,99749.83
2019-03-10T17:30:16.378Z,99747.94
2019-03-10T17:32:45.192Z,99760.69
2019-03-10T17:35:14.228Z,99763.45
2019-03-10T17:37:42.985Z,99774.59
2019-03-10T17:40:13.965Z,99782.76
2019-03-10T17:42:42.672Z,99820.44
2019-03-10T17:45:17.026Z,99829.76
2019-03-10T17:47:48.919Z,99830.20
2019-03-10T17:50:24.426Z,99835.17
2019-03-10T17:52:54.738Z,99898.91
2019-03-10T17:55:30.358Z,99920.84
2019-03-10T17:57:59.547Z,99959.08
2019-03-10T18:00:29.558Z,99951.40
2019-03-10T18:03:02.057Z,99979.44
2019-03-10T18:05:31.352Z,100007.90
2019-03-10T18:08:00.161Z,99999.47
2019-03-10T18:10:29.066Z,100040.72
2019-03-10T18:13:03.794Z,100073.49
2019-03-10T18:15:32.801Z,100077.72
2019-03-10T18:18:04.396Z,100065.55
2019-03-10T18:23:25.366Z,100083.70
2019-03-10T18:25:56.126Z,100073.53
2019-03-10T18:28:26.183Z,100079.69
2019-03-10T18:30:55.186Z,100069.78
2019-03-10T18:33:23.989Z,100068.99
2019-03-10T18:35:53.098Z,100079.25
2019-03-10T18:38:22.007Z,100077.18
2019-03-10T18:40:54.726Z,100093.71
2019-03-10T18:43:25.226Z,100098.66
2019-03-10T18:45:59.395Z,100111.95
2019-03-10T18:48:29.589Z,100107.92
2019-03-10T18:51:00.232Z,100099.44
2019-03-10T18:53:30.292Z,100111.02
2019-03-10T18:56:00.453Z,100118.22
2019-03-10T18:58:31.228Z,100138.14
2019-03-10T19:01:02.684Z,100142.39
2019-03-10T19:03:34.964Z,100138.78
2019-03-10T19:06:03.823Z,100152.84
2019-03-10T19:08:34.676Z,100150.08
2019-03-10T19:11:06.575Z,100157.22
2019-03-10T19:13:35.829Z,100161.36
2019-03-10T19:16:07.560Z,100159.39
2019-03-10T19:18:37.456Z,100172.61
2019-03-10T19:21:08.324Z,100165.66
2019-03-10T19:23:38.524Z,100176.13
2019-03-10T19:26:11.132Z,100181.69
2019-03-10T19:28:43.326Z,100182.73
2019-03-10T19:31:17.722Z,100196.98
2019-03-10T19:33:47.354Z,100211.47
2019-03-10T19:36:18.072Z,100226.00
2019-03-10T19:39:06.804Z,100212.16
2019-03-10T19:41:36.414Z,100219.95
2019-03-10T19:44:21.080Z,100230.94
2019-03-10T19:47:08.117Z,100230.06
2019-03-10T19:49:37.387Z,100228.66
2019-03-10T19:52:17.337Z,100244.29
2019-03-10T19:54:48.326Z,100249.69
2019-03-10T19:57:17.958Z,100262.62
2019-03-10T19:59:49.007Z,100263.83
2019-03-10T20:02:18.464Z,100285.41
2019-03-10T20:04:49.588Z,100282.97
2019-03-10T20:07:21.753Z,100290.61
2019-03-10T20:09:55.404Z,100321.00
2019-03-10T20:12:27.856Z,100290.00
2019-03-10T20:14:58.770Z,100300.66
2019-03-10T20:17:30.777Z,100300.68
2019-03-10T20:20:17.243Z,100291.36
2019-03-10T20:22:48.096Z,100290.36
2019-03-10T20:25:18.430Z,100315.05
2019-03-10T20:27:47.805Z,100324.63
2019-03-10T20:30:19.608Z,100339.27
2019-03-10T20:32:51.748Z,100343.62
2019-03-10T20:35:35.521Z,100351.30
2019-03-10T20:38:06.359Z,100351.80
2019-03-10T20:40:35.995Z,100358.95
2019-03-10T20:43:24.860Z,100364.93
2019-03-10T20:45:55.059Z,100366.42
2019-03-10T20:49:05.136Z,100374.24
2019-03-10T20:51:42.290Z,100376.23
2019-03-10T20:54:11.391Z,100374.74
2019-03-10T20:56:55.056Z,100381.38
2019-03-10T20:59:27.385Z,100391.53
2019-03-10T21:01:58.802Z,100406.28
2019-03-10T21:04:27.630Z,100421.06
2019-03-10T21:06:57.607Z,100424.03
2019-03-10T21:09:27.459Z,100421.89
2019-03-10T21:11:58.692Z,100423.89
2019-03-10T21:14:30.326Z,100438.48
2019-03-10T21:17:02.664Z,100435.31
2019-03-10T21:19:33.738Z,100444.11
2019-03-10T21:22:05.691Z,100446.77
2019-03-10T21:24:55.603Z,100445.12
2019-03-10T21:27:27.013Z,100453.58
2019-03-10T21:29:58.692Z,100439.64
2019-03-10T21:32:29.183Z,100452.23
2019-03-10T21:35:00.441Z,100456.36
2019-03-10T21:37:37.459Z,100459.84
2019-03-10T21:43:14.031Z,100457.19
2019-03-10T21:45:46.305Z,100461.34
2019-03-10T21:48:20.444Z,100484.28
2019-03-10T21:50:55.458Z,100491.91
2019-03-10T21:53:24.822Z,100500.36
2019-03-10T21:55:53.669Z,100498.05
2019-03-10T21:58:33.421Z,100500.53
2019-03-10T22:01:02.160Z,100510.98
2019-03-10T22:03:31.448Z,100510.00
2019-03-10T22:06:02.182Z,100514.97
2019-03-10T22:08:31.404Z,100508.67
2019-03-10T22:11:02.406Z,100514.30
2019-03-10T22:13:31.466Z,100516.80
2019-03-10T22:16:02.875Z,100531.91
2019-03-10T22:18:32.300Z,100547.52
2019-03-10T22:21:01.182Z,100599.33
2019-03-10T22:23:58.815Z,100590.50
2019-03-10T22:26:26.506Z,100600.40
2019-03-10T22:28:56.099Z,100601.47
2019-03-10T22:31:24.848Z,100634.67
2019-03-10T22:33:55.775Z,100636.38
2019-03-10T22:36:29.319Z,100595.06
2019-03-10T22:39:00.293Z,100583.30
2019-03-10T22:42:18.519Z,100577.64
2019-03-10T22:44:24.920Z,100576.00
2019-03-10T22:47:54.310Z,100572.64
2019-03-10T22:50:23.151Z,100571.91
2019-03-10T22:52:55.155Z,100579.09
2019-03-10T22:55:25.975Z,100587.56
2019-03-10T22:58:05.673Z,100580.18
2019-03-10T23:00:58.655Z,100576.94
2019-03-10T23:03:33.721Z,100584.48
2019-03-10T23:06:03.183Z,100579.17
2019-03-10T23:08:35.321Z,100577.13
2019-03-10T23:11:04.483Z,100576.45
2019-03-10T23:14:10.576Z,100577.48
2019-03-10T23:16:54.207Z,100573.19
2019-03-10T23:19:50.707Z,100572.84
2019-03-10T23:22:19.415Z,100577.98
2019-03-10T23:24:48.148Z,100571.84
2019-03-10T23:27:16.787Z,100580.22
2019-03-10T23:29:45.385Z,100587.33
2019-03-10T23:32:14.039Z,100592.42
2019-03-10T23:34:42.672Z,100587.77
2019-03-10T23:37:11.336Z,100583.34
2019-03-10T23:39:39.954Z,100578.98
2019-03-10T23:42:08.635Z,100583.25
2019-03-10T23:44:37.264Z,100579.05
2019-03-10T23:47:05.983Z,100570.55
2019-03-10T23:49:34.619Z,100577.05
2019-03-10T23:52:03.270Z,100568.59
2019-03-10T23:54:31.906Z,100558.64
2019-03-10T23:57:00.659Z,100561.12
2019-03-10T23:59:29.352Z,100554.50
